createdAt,value
2019-01-29T00:01:14.549Z,97.17
2019-01-29T00:03:21.428Z,87.40
2019-01-29T00:05:27.768Z,94.27
2019-01-29T00:07:34.169Z,83.63
2019-01-29T00:09:40.669Z,88.57
2019-01-29T00:11:47.188Z,90.40
2019-01-29T00:13:53.488Z,83.47
2019-01-29T00:16:00.370Z,85.50
2019-01-29T00:18:06.668Z,86.83
2019-01-29T00:20:13.276Z,89.67
2019-01-29T00:22:20.339Z,84.73
2019-01-29T00:24:29.488Z,86.83
2019-01-29T00:26:36.468Z,92.53
2019-01-29T00:28:42.996Z,95.07
2019-01-29T00:30:49.448Z,80.17
2019-01-29T00:32:56.211Z,84.93
2019-01-29T00:35:02.476Z,91.50
2019-01-29T00:37:08.671Z,89.60
2019-01-29T00:39:15.011Z,91.50
2019-01-29T00:41:21.549Z,82.77
2019-01-29T00:43:28.277Z,92.33
2019-01-29T00:45:34.569Z,87.23
2019-01-29T00:47:41.368Z,80.40
2019-01-29T00:49:49.168Z,91.27
2019-01-29T00:51:56.471Z,80.90
2019-01-29T00:54:03.430Z,86.50
2019-01-29T00:56:09.949Z,89.90
2019-01-29T00:58:16.489Z,84.97
2019-01-29T01:00:24.928Z,84.53
2019-01-29T01:02:31.129Z,81.33
2019-01-29T01:04:38.248Z,82.57
2019-01-29T01:06:44.728Z,87.23
2019-01-29T01:08:53.469Z,86.03
2019-01-29T01:10:59.709Z,88.50
2019-01-29T01:13:08.028Z,85.00
2019-01-29T01:15:15.334Z,80.73
2019-01-29T01:17:22.208Z,84.00
2019-01-29T01:19:29.008Z,85.20
2019-01-29T01:21:35.388Z,85.03
2019-01-29T01:23:41.831Z,88.03
2019-01-29T01:25:48.756Z,88.90
2019-01-29T01:27:54.934Z,93.90
2019-01-29T01:30:01.430Z,82.87
2019-01-29T01:32:08.630Z,87.83
2019-01-29T01:34:17.729Z,80.23
2019-01-29T01:36:24.588Z,87.30
2019-01-29T01:38:31.127Z,83.20
2019-01-29T01:40:37.647Z,83.77
2019-01-29T01:42:44.171Z,83.60
2019-01-29T01:44:51.469Z,80.23
2019-01-29T01:46:58.548Z,89.40
2019-01-29T01:49:04.768Z,80.63
2019-01-29T01:51:11.170Z,87.83
2019-01-29T01:53:17.448Z,87.63
2019-01-29T01:55:23.808Z,92.50
2019-01-29T01:57:30.616Z,79.43
2019-01-29T01:59:36.708Z,83.90
2019-01-29T02:01:42.928Z,81.67
2019-01-29T02:03:52.728Z,92.20
2019-01-29T02:06:01.109Z,77.90
2019-01-29T02:08:13.889Z,86.50
2019-01-29T02:10:30.148Z,81.17
2019-01-29T02:12:37.208Z,85.13
2019-01-29T02:14:43.708Z,84.03
2019-01-29T02:16:51.628Z,84.07
2019-01-29T02:19:11.369Z,86.77
2019-01-29T02:21:18.571Z,87.20
2019-01-29T02:23:25.788Z,81.87
2019-01-29T02:25:31.871Z,87.20
2019-01-29T02:27:38.229Z,83.90
2019-01-29T02:29:45.568Z,84.03
2019-01-29T02:31:52.768Z,78.67
2019-01-29T02:33:59.828Z,83.27
2019-01-29T02:36:06.289Z,87.97
2019-01-29T02:38:13.311Z,84.37
2019-01-29T02:40:22.828Z,95.03
2019-01-29T02:42:35.109Z,89.70
2019-01-29T02:44:42.908Z,79.30
2019-01-29T02:46:54.828Z,82.40
2019-01-29T02:49:17.999Z,98.17
2019-01-29T02:51:32.908Z,88.10
2019-01-29T02:53:40.328Z,87.93
2019-01-29T02:55:46.468Z,88.67
2019-01-29T02:57:52.694Z,84.47
2019-01-29T02:59:59.368Z,92.03
2019-01-29T03:02:07.409Z,89.23
2019-01-29T03:07:39.368Z,88.53
2019-01-29T03:09:46.248Z,88.07
2019-01-29T03:11:52.547Z,82.37
2019-01-29T03:14:02.748Z,89.77
2019-01-29T03:16:09.129Z,97.40
2019-01-29T03:18:15.527Z,107.03
2019-01-29T03:20:21.908Z,103.17
2019-01-29T03:22:28.231Z,95.97
2019-01-29T03:24:34.669Z,84.30
2019-01-29T03:26:41.167Z,94.53
2019-01-29T03:28:47.610Z,85.87
2019-01-29T03:30:53.889Z,95.23
2019-01-29T03:33:00.070Z,82.53
2019-01-29T03:35:08.827Z,91.90
2019-01-29T03:37:15.908Z,81.77
2019-01-29T03:39:23.989Z,92.30
2019-01-29T03:41:31.388Z,94.33
2019-01-29T03:43:38.528Z,82.17
2019-01-29T03:45:54.789Z,86.30
2019-01-29T03:48:05.888Z,88.43
2019-01-29T03:50:18.410Z,75.90
2019-01-29T03:52:25.713Z,82.43
2019-01-29T03:54:32.169Z,89.90
2019-01-29T03:56:38.470Z,86.83
2019-01-29T03:58:45.289Z,87.17
2019-01-29T04:00:52.047Z,87.40
2019-01-29T04:02:58.667Z,85.90
2019-01-29T04:05:06.149Z,91.33
2019-01-29T04:07:12.555Z,79.90
2019-01-29T04:09:18.948Z,81.03
2019-01-29T04:11:26.588Z,86.87
2019-01-29T04:13:33.189Z,85.40
2019-01-29T04:15:40.271Z,79.57
2019-01-29T04:17:47.208Z,79.43
2019-01-29T04:19:53.609Z,90.30
2019-01-29T04:22:00.001Z,82.60
2019-01-29T04:24:08.308Z,78.50
2019-01-29T04:26:22.028Z,85.47
2019-01-29T04:28:33.908Z,77.33
2019-01-29T04:30:46.910Z,87.90
2019-01-29T04:32:53.069Z,80.80
2019-01-29T04:35:01.769Z,84.90
2019-01-29T04:37:08.888Z,80.50
2019-01-29T04:39:15.248Z,77.33
2019-01-29T04:41:21.610Z,88.23
2019-01-29T04:43:29.328Z,89.97
2019-01-29T04:45:35.539Z,118.03
2019-01-29T04:47:42.054Z,150.83
2019-01-29T04:49:48.651Z,167.13
2019-01-29T04:51:56.208Z,162.47
2019-01-29T04:54:02.407Z,144.10
2019-01-29T04:56:09.228Z,124.03
2019-01-29T04:58:15.273Z,105.13
2019-01-29T05:00:26.842Z,94.37
2019-01-29T05:02:33.169Z,89.37
2019-01-29T05:04:41.210Z,91.77
2019-01-29T05:06:49.748Z,87.13
2019-01-29T05:08:56.408Z,93.30
2019-01-29T05:11:03.848Z,84.67
2019-01-29T05:13:10.269Z,91.00
2019-01-29T05:15:19.439Z,96.07
2019-01-29T05:17:26.948Z,88.80
2019-01-29T05:19:34.407Z,96.67
2019-01-29T05:21:41.948Z,91.87
2019-01-29T05:23:49.899Z,86.40
2019-01-29T05:25:56.368Z,85.40
2019-01-29T05:28:03.088Z,88.10
2019-01-29T05:30:16.889Z,92.70
2019-01-29T05:32:25.399Z,82.53
2019-01-29T05:34:32.154Z,86.23
2019-01-29T05:36:38.468Z,86.57
2019-01-29T05:38:45.149Z,90.37
2019-01-29T05:40:53.320Z,92.63
2019-01-29T05:43:00.428Z,89.77
2019-01-29T05:45:12.618Z,88.33
2019-01-29T05:47:20.171Z,101.70
2019-01-29T05:49:26.636Z,83.13
2019-01-29T05:51:33.393Z,88.73
2019-01-29T05:53:39.768Z,98.40
2019-01-29T05:55:46.250Z,100.67
2019-01-29T05:57:52.750Z,111.57
2019-01-29T05:59:59.088Z,103.60
2019-01-29T06:02:05.771Z,105.63
2019-01-29T06:04:12.268Z,100.87
2019-01-29T06:06:20.156Z,87.63
2019-01-29T06:10:57.868Z,86.90
2019-01-29T06:13:07.349Z,76.53
2019-01-29T06:15:25.548Z,79.80
2019-01-29T06:17:32.071Z,89.00
2019-01-29T06:19:43.931Z,87.93
2019-01-29T06:21:56.532Z,90.77
2019-01-29T06:24:02.929Z,78.87
2019-01-29T06:26:09.468Z,84.67
2019-01-29T06:28:18.828Z,79.90
2019-01-29T06:30:26.808Z,76.73
2019-01-29T06:32:34.129Z,72.83
2019-01-29T06:34:41.907Z,80.07
2019-01-29T06:36:50.924Z,75.13
2019-01-29T06:39:00.208Z,73.00
2019-01-29T06:41:06.730Z,72.73
2019-01-29T06:43:12.950Z,78.47
2019-01-29T06:45:23.429Z,79.13
2019-01-29T06:47:30.849Z,81.77
2019-01-29T06:49:40.388Z,79.50
2019-01-29T06:51:48.490Z,75.57
2019-01-29T06:53:55.309Z,76.40
2019-01-29T06:56:09.767Z,69.50
2019-01-29T06:58:20.654Z,71.57
2019-01-29T07:00:31.990Z,75.03
2019-01-29T07:02:38.069Z,73.73
2019-01-29T07:04:44.640Z,105.47
2019-01-29T07:06:51.029Z,86.30
2019-01-29T07:08:58.168Z,80.00
2019-01-29T07:11:04.488Z,87.13
2019-01-29T07:13:11.328Z,75.43
2019-01-29T07:15:45.288Z,74.20
2019-01-29T07:17:51.628Z,74.77
2019-01-29T07:19:57.929Z,63.47
2019-01-29T07:22:05.188Z,65.70
2019-01-29T07:24:12.331Z,77.73
2019-01-29T07:26:19.395Z,81.57
2019-01-29T07:28:27.330Z,81.93
2019-01-29T07:30:36.946Z,115.87
2019-01-29T07:32:43.392Z,93.10
2019-01-29T07:34:50.306Z,76.27
2019-01-29T07:36:56.608Z,69.73
2019-01-29T07:39:04.871Z,64.83
2019-01-29T07:41:11.428Z,62.60
2019-01-29T07:43:17.748Z,59.53
2019-01-29T07:45:25.192Z,60.30
2019-01-29T07:47:32.369Z,61.50
2019-01-29T07:49:38.868Z,59.73
2019-01-29T07:51:46.408Z,60.53
2019-01-29T07:53:52.748Z,62.33
2019-01-29T07:55:59.048Z,59.43
2019-01-29T07:58:07.070Z,64.70
2019-01-29T08:00:18.429Z,64.20
2019-01-29T08:02:25.688Z,78.73
2019-01-29T08:04:31.984Z,81.87
2019-01-29T08:06:41.689Z,63.93
2019-01-29T08:08:49.332Z,58.40
2019-01-29T08:10:55.568Z,68.03
2019-01-29T08:13:01.809Z,62.13
2019-01-29T08:15:12.430Z,65.53
2019-01-29T08:17:19.369Z,66.03
2019-01-29T08:19:27.468Z,64.07
2019-01-29T08:21:33.749Z,64.30
2019-01-29T08:23:40.091Z,71.77
2019-01-29T08:25:47.801Z,84.80
2019-01-29T08:27:58.449Z,79.13
2019-01-29T08:30:06.308Z,71.97
2019-01-29T08:32:12.909Z,85.03
2019-01-29T08:34:19.204Z,150.30
2019-01-29T08:36:25.508Z,94.63
2019-01-29T08:38:31.889Z,77.90
2019-01-29T08:40:38.248Z,75.87
2019-01-29T08:42:44.568Z,78.23
2019-01-29T08:44:50.669Z,71.87
2019-01-29T08:46:56.989Z,79.50
2019-01-29T08:49:03.250Z,63.73
2019-01-29T08:51:09.649Z,75.13
2019-01-29T08:53:17.108Z,71.40
2019-01-29T08:55:23.529Z,79.70
2019-01-29T08:57:30.088Z,80.27
2019-01-29T08:59:36.409Z,82.77
2019-01-29T09:01:44.249Z,68.27
2019-01-29T09:03:50.548Z,79.40
2019-01-29T09:05:57.388Z,81.00
2019-01-29T09:08:04.148Z,77.87
2019-01-29T09:10:17.088Z,81.37
2019-01-29T09:12:23.468Z,83.80
2019-01-29T09:14:30.012Z,69.37
2019-01-29T09:16:36.189Z,64.30
2019-01-29T09:18:42.688Z,80.30
2019-01-29T09:20:49.292Z,71.20
2019-01-29T09:22:57.430Z,74.60
2019-01-29T09:25:04.193Z,70.73
2019-01-29T09:27:10.489Z,73.83
2019-01-29T09:29:17.862Z,69.03
2019-01-29T09:31:24.508Z,75.00
2019-01-29T09:33:31.591Z,66.07
2019-01-29T09:35:37.889Z,74.20
2019-01-29T09:37:44.496Z,78.07
2019-01-29T09:39:51.369Z,68.40
2019-01-29T09:41:58.008Z,67.57
2019-01-29T09:44:04.530Z,74.03
2019-01-29T09:46:10.848Z,68.23
2019-01-29T09:48:18.168Z,81.53
2019-01-29T09:50:29.429Z,76.83
2019-01-29T09:52:36.049Z,171.10
2019-01-29T09:54:42.807Z,84.47
2019-01-29T09:56:49.759Z,95.13
2019-01-29T09:58:56.308Z,500.53
2019-01-29T10:01:02.728Z,134.70
2019-01-29T10:03:09.049Z,87.10
2019-01-29T10:05:15.868Z,63.03
2019-01-29T10:07:23.468Z,64.00
2019-01-29T10:09:29.675Z,67.83
2019-01-29T10:11:35.873Z,61.30
2019-01-29T10:13:42.049Z,61.73
2019-01-29T10:15:48.368Z,59.57
2019-01-29T10:17:54.988Z,56.80
2019-01-29T10:20:02.783Z,55.50
2019-01-29T10:22:10.788Z,58.67
2019-01-29T10:24:17.248Z,59.80
2019-01-29T10:26:23.869Z,60.20
2019-01-29T10:28:30.255Z,62.57
2019-01-29T10:30:38.988Z,55.57
2019-01-29T10:32:45.268Z,52.57
2019-01-29T10:34:51.690Z,56.27
2019-01-29T10:36:58.428Z,52.50
2019-01-29T10:39:07.088Z,51.43
2019-01-29T10:41:13.388Z,45.47
2019-01-29T10:43:19.812Z,45.47
2019-01-29T10:45:28.849Z,49.40
2019-01-29T10:47:36.069Z,43.33
2019-01-29T10:49:42.449Z,48.20
2019-01-29T10:51:49.250Z,42.23
2019-01-29T10:53:55.934Z,40.80
2019-01-29T10:56:03.714Z,75.83
2019-01-29T10:58:11.830Z,135.17
2019-01-29T11:00:26.434Z,48.90
2019-01-29T11:02:32.970Z,161.67
2019-01-29T11:04:39.275Z,115.87
2019-01-29T11:06:45.710Z,39.47
2019-01-29T11:08:52.933Z,71.33
2019-01-29T11:10:59.226Z,98.43
2019-01-29T11:13:07.387Z,75.23
2019-01-29T11:15:21.410Z,38.80
2019-01-29T11:17:28.012Z,33.27
2019-01-29T11:19:34.564Z,33.37
2019-01-29T11:21:41.453Z,41.67
2019-01-29T11:23:49.111Z,182.17
2019-01-29T11:25:56.245Z,51.37
2019-01-29T11:28:03.533Z,33.07
2019-01-29T11:30:14.837Z,30.87
2019-01-29T11:32:21.352Z,33.17
2019-01-29T11:34:27.951Z,29.17
2019-01-29T11:36:35.110Z,31.07
2019-01-29T11:38:41.991Z,36.53
2019-01-29T11:40:48.770Z,41.90
2019-01-29T11:42:55.050Z,346.30
2019-01-29T11:45:02.211Z,32.87
2019-01-29T11:47:08.498Z,51.33
2019-01-29T11:49:15.330Z,32.50
2019-01-29T11:51:22.151Z,64.13
2019-01-29T11:53:28.453Z,94.63
2019-01-29T11:55:34.471Z,44.40
2019-01-29T11:57:41.031Z,30.97
2019-01-29T11:59:47.269Z,33.13
2019-01-29T12:01:53.708Z,25.87
2019-01-29T12:04:00.168Z,32.43
2019-01-29T12:06:06.489Z,19.47
2019-01-29T12:08:13.008Z,25.77
2019-01-29T12:10:20.068Z,21.53
2019-01-29T12:12:27.591Z,21.93
2019-01-29T12:14:34.050Z,23.57
2019-01-29T12:16:40.150Z,23.70
2019-01-29T12:18:46.385Z,25.97
2019-01-29T12:20:56.090Z,21.93
2019-01-29T12:23:02.861Z,27.77
2019-01-29T12:25:09.117Z,26.90
2019-01-29T12:27:15.653Z,22.43
2019-01-29T12:29:25.296Z,24.40
2019-01-29T12:31:31.950Z,22.47
2019-01-29T12:33:38.750Z,20.87
2019-01-29T12:35:45.091Z,18.83
2019-01-29T12:37:51.777Z,21.87
2019-01-29T12:39:57.982Z,17.57
2019-01-29T12:42:04.441Z,23.47
2019-01-29T12:44:12.033Z,35.37
2019-01-29T12:46:18.476Z,78.17
2019-01-29T12:48:25.115Z,20.93
2019-01-29T12:50:33.390Z,30.97
2019-01-29T12:52:42.111Z,29.63
2019-01-29T12:54:50.370Z,17.33
2019-01-29T12:56:57.548Z,18.90
2019-01-29T12:59:03.785Z,14.73
2019-01-29T13:01:18.608Z,12.83
2019-01-29T13:03:25.568Z,13.30
2019-01-29T13:05:32.780Z,15.47
2019-01-29T13:07:39.408Z,12.83
2019-01-29T13:09:45.836Z,14.13
2019-01-29T13:11:53.668Z,12.73
2019-01-29T13:14:00.169Z,12.13
2019-01-29T13:16:08.609Z,13.97
2019-01-29T13:18:15.932Z,23.33
2019-01-29T13:20:22.233Z,16.73
2019-01-29T13:22:28.628Z,16.97
2019-01-29T13:24:35.228Z,16.37
2019-01-29T13:26:43.408Z,14.87
2019-01-29T13:28:49.908Z,15.23
2019-01-29T13:30:56.590Z,41.83
2019-01-29T13:33:02.790Z,26.53
2019-01-29T13:35:11.473Z,18.13
2019-01-29T13:37:18.052Z,105.83
2019-01-29T13:39:24.469Z,14.77
2019-01-29T13:41:30.955Z,27.30
2019-01-29T13:43:37.309Z,8.83
2019-01-29T13:45:43.969Z,13.30
2019-01-29T13:47:50.559Z,25.17
2019-01-29T13:49:56.855Z,26.13
2019-01-29T13:52:04.148Z,14.17
2019-01-29T13:54:11.689Z,72.70
2019-01-29T13:56:20.332Z,113.13
2019-01-29T13:58:28.704Z,17.93
2019-01-29T14:00:37.438Z,79.93
2019-01-29T14:02:43.570Z,15.10
2019-01-29T14:04:51.811Z,21.23
2019-01-29T14:06:59.651Z,9.30
2019-01-29T14:09:08.871Z,11.70
2019-01-29T14:11:15.274Z,6.70
2019-01-29T14:13:21.871Z,14.70
2019-01-29T14:15:31.794Z,7.63
2019-01-29T14:17:38.491Z,8.83
2019-01-29T14:19:45.409Z,11.80
2019-01-29T14:21:51.648Z,8.43
2019-01-29T14:23:57.928Z,34.43
2019-01-29T14:26:04.313Z,27.60
2019-01-29T14:28:14.693Z,8.70
2019-01-29T14:30:31.488Z,9.83
2019-01-29T14:32:39.472Z,19.00
2019-01-29T14:34:46.031Z,11.73
2019-01-29T14:36:52.112Z,12.13
2019-01-29T14:39:21.610Z,8.57
2019-01-29T14:41:28.291Z,22.00
2019-01-29T14:43:39.199Z,79.77
2019-01-29T14:45:45.776Z,149.90
2019-01-29T14:47:52.936Z,142.93
2019-01-29T14:49:59.491Z,60.33
2019-01-29T14:52:06.349Z,32.77
2019-01-29T14:54:13.437Z,20.07
2019-01-29T14:56:20.929Z,15.37
2019-01-29T14:58:27.288Z,17.60
2019-01-29T15:00:37.638Z,39.93
2019-01-29T15:02:44.671Z,27.97
2019-01-29T15:04:51.859Z,23.33
2019-01-29T15:06:59.557Z,27.87
2019-01-29T15:09:08.631Z,30.77
2019-01-29T15:11:17.340Z,31.20
2019-01-29T15:13:23.794Z,22.60
2019-01-29T15:15:35.061Z,30.57
2019-01-29T15:17:43.701Z,28.93
2019-01-29T15:19:50.474Z,30.17
2019-01-29T15:21:56.668Z,14.63
2019-01-29T15:24:05.188Z,21.00
2019-01-29T15:26:12.069Z,17.57
2019-01-29T15:28:18.810Z,17.90
2019-01-29T15:30:30.529Z,14.60
2019-01-29T15:32:37.117Z,123.40
2019-01-29T15:34:44.549Z,227.53
2019-01-29T15:36:50.908Z,33.17
2019-01-29T15:38:57.328Z,147.97
2019-01-29T15:41:04.368Z,31.17
2019-01-29T15:43:10.708Z,20.90
2019-01-29T15:45:26.310Z,17.43
2019-01-29T15:47:32.989Z,12.53
2019-01-29T15:49:39.684Z,23.77
2019-01-29T15:51:46.388Z,13.57
2019-01-29T15:53:52.668Z,13.27
2019-01-29T15:56:00.269Z,17.40
2019-01-29T15:58:07.268Z,12.67
2019-01-29T16:00:35.808Z,12.87
2019-01-29T16:02:42.910Z,11.47
2019-01-29T16:04:50.009Z,13.60
2019-01-29T16:06:56.124Z,14.47
2019-01-29T16:09:02.600Z,17.10
2019-01-29T16:11:11.072Z,15.03
2019-01-29T16:13:18.128Z,13.87
2019-01-29T16:15:26.488Z,15.20
2019-01-29T16:17:32.877Z,13.43
2019-01-29T16:19:39.194Z,11.57
2019-01-29T16:21:45.910Z,12.83
2019-01-29T16:23:52.438Z,14.00
2019-01-29T16:25:59.069Z,16.57
2019-01-29T16:28:06.548Z,25.27
2019-01-29T16:30:31.545Z,13.57
2019-01-29T16:32:38.368Z,14.83
2019-01-29T16:34:45.468Z,24.47
2019-01-29T16:36:52.927Z,33.33
2019-01-29T16:38:59.548Z,28.00
2019-01-29T16:41:06.129Z,20.17
2019-01-29T16:43:12.629Z,14.53
2019-01-29T16:45:26.408Z,15.23
2019-01-29T16:47:35.042Z,15.57
2019-01-29T16:49:41.268Z,11.57
2019-01-29T16:51:47.777Z,10.70
2019-01-29T16:53:54.448Z,10.17
2019-01-29T16:56:02.612Z,20.63
2019-01-29T16:58:09.511Z,31.83
2019-01-29T17:00:32.409Z,25.60
2019-01-29T17:02:38.968Z,15.87
2019-01-29T17:04:45.409Z,18.30
2019-01-29T17:06:51.887Z,18.67
2019-01-29T17:08:58.510Z,28.40
2019-01-29T17:11:05.888Z,21.67
2019-01-29T17:13:12.648Z,15.97
2019-01-29T17:15:31.588Z,44.37
2019-01-29T17:17:37.978Z,26.60
2019-01-29T17:19:44.769Z,22.73
2019-01-29T17:21:51.711Z,25.60
2019-01-29T17:23:58.278Z,17.13
2019-01-29T17:26:04.618Z,23.37
2019-01-29T17:28:10.989Z,26.30
2019-01-29T17:30:45.240Z,41.13
2019-01-29T17:32:51.908Z,45.83
2019-01-29T17:34:58.540Z,26.30
2019-01-29T17:37:05.135Z,29.03
2019-01-29T17:39:11.668Z,25.87
2019-01-29T17:41:19.589Z,21.10
2019-01-29T17:43:25.988Z,19.37
2019-01-29T17:45:43.188Z,16.87
2019-01-29T17:47:51.289Z,17.40
2019-01-29T17:49:59.038Z,27.10
2019-01-29T17:52:05.592Z,40.43
2019-01-29T17:54:13.615Z,50.90
2019-01-29T17:56:20.448Z,54.27
2019-01-29T17:58:27.450Z,36.27
2019-01-29T18:00:35.729Z,41.83
2019-01-29T18:02:42.855Z,65.93
2019-01-29T18:04:52.253Z,73.70
2019-01-29T18:07:00.793Z,70.80
2019-01-29T18:09:09.675Z,101.37
2019-01-29T18:11:16.568Z,43.83
2019-01-29T18:13:23.468Z,89.37
2019-01-29T18:15:33.438Z,117.77
2019-01-29T18:17:40.188Z,116.23
2019-01-29T18:19:47.136Z,31.97
2019-01-29T18:21:56.939Z,39.40
2019-01-29T18:24:03.336Z,32.73
2019-01-29T18:26:10.436Z,57.63
2019-01-29T18:30:46.581Z,73.80
2019-01-29T18:32:53.358Z,41.47
2019-01-29T18:35:00.549Z,38.27
2019-01-29T18:37:07.255Z,26.27
2019-01-29T18:39:14.146Z,25.90
2019-01-29T18:41:20.948Z,16.43
2019-01-29T18:43:27.867Z,17.87
2019-01-29T18:45:35.988Z,18.00
2019-01-29T18:47:42.728Z,14.40
2019-01-29T18:49:51.072Z,13.43
2019-01-29T18:51:58.009Z,17.57
2019-01-29T18:54:05.429Z,17.33
2019-01-29T18:56:12.608Z,16.70
2019-01-29T18:58:21.009Z,22.13
2019-01-29T19:00:27.938Z,21.73
2019-01-29T19:02:35.888Z,19.27
2019-01-29T19:04:42.609Z,17.77
2019-01-29T19:06:50.557Z,17.87
2019-01-29T19:08:57.353Z,14.47
2019-01-29T19:11:04.415Z,23.33
2019-01-29T19:13:11.269Z,22.80
2019-01-29T19:15:23.330Z,20.67
2019-01-29T19:17:30.242Z,21.80
2019-01-29T19:19:36.930Z,22.67
2019-01-29T19:21:44.169Z,21.80
2019-01-29T19:23:51.128Z,25.27
2019-01-29T19:25:57.935Z,52.50
2019-01-29T19:28:04.729Z,37.03
2019-01-29T19:30:23.041Z,29.37
2019-01-29T19:32:31.388Z,43.47
2019-01-29T19:34:38.448Z,97.57
2019-01-29T19:36:45.074Z,29.47
2019-01-29T19:38:51.969Z,27.87
2019-01-29T19:40:58.789Z,29.83
2019-01-29T19:43:06.768Z,23.10
2019-01-29T19:45:26.475Z,29.00
2019-01-29T19:47:33.343Z,25.57
2019-01-29T19:49:40.128Z,44.90
2019-01-29T19:51:49.629Z,51.93
2019-01-29T19:53:56.041Z,54.93
2019-01-29T19:56:02.971Z,54.57
2019-01-29T19:58:10.039Z,64.37
2019-01-29T20:00:21.409Z,74.60
2019-01-29T20:02:28.248Z,108.73
2019-01-29T20:04:35.000Z,75.60
2019-01-29T20:06:41.308Z,40.80
2019-01-29T20:08:48.108Z,29.07
2019-01-29T20:10:55.068Z,25.67
2019-01-29T20:13:01.868Z,23.87
2019-01-29T20:15:12.648Z,41.17
2019-01-29T20:17:19.608Z,32.97
2019-01-29T20:19:26.090Z,26.53
2019-01-29T20:21:33.129Z,18.17
2019-01-29T20:23:41.328Z,22.00
2019-01-29T20:25:49.089Z,20.40
2019-01-29T20:27:55.673Z,23.47
2019-01-29T20:30:02.757Z,26.40
2019-01-29T20:32:09.188Z,21.20
2019-01-29T20:34:16.669Z,18.00
2019-01-29T20:36:23.494Z,17.70
2019-01-29T20:38:35.187Z,26.97
2019-01-29T20:40:39.055Z,23.03
2019-01-29T20:42:46.336Z,24.20
2019-01-29T20:44:53.168Z,15.43
2019-01-29T20:46:59.866Z,19.63
2019-01-29T20:49:06.528Z,21.30
2019-01-29T20:51:13.388Z,16.47
2019-01-29T20:53:20.229Z,19.47
2019-01-29T20:55:27.156Z,19.23
2019-01-29T20:57:34.089Z,17.73
2019-01-29T20:59:41.172Z,19.80
2019-01-29T21:01:48.948Z,27.40
2019-01-29T21:03:55.769Z,26.00
2019-01-29T21:06:03.529Z,24.03
2019-01-29T21:08:10.471Z,27.33
2019-01-29T21:10:26.271Z,33.60
2019-01-29T21:12:34.397Z,48.00
2019-01-29T21:14:41.890Z,45.93
2019-01-29T21:16:50.108Z,42.13
2019-01-29T21:18:56.802Z,43.43
2019-01-29T21:21:03.788Z,43.37
2019-01-29T21:23:10.969Z,43.73
2019-01-29T21:25:17.988Z,40.80
2019-01-29T21:27:25.110Z,37.27
2019-01-29T21:29:31.868Z,38.63
2019-01-29T21:31:40.401Z,38.03
2019-01-29T21:33:47.048Z,41.57
2019-01-29T21:35:53.728Z,39.13
2019-01-29T21:38:00.356Z,36.87
2019-01-29T21:40:13.397Z,30.77
2019-01-29T21:42:22.090Z,36.77
2019-01-29T21:44:28.649Z,40.47
2019-01-29T21:46:35.072Z,39.30
2019-01-29T21:48:41.950Z,36.07
2019-01-29T21:50:48.809Z,29.10
2019-01-29T21:52:55.576Z,32.97
2019-01-29T21:55:02.909Z,43.90
2019-01-29T21:57:10.029Z,38.47
2019-01-29T21:59:16.388Z,25.63
2019-01-29T22:01:23.068Z,28.83
2019-01-29T22:03:29.288Z,23.53
2019-01-29T22:05:36.767Z,21.90
2019-01-29T22:07:43.268Z,22.77
2019-01-29T22:09:49.548Z,28.20
2019-01-29T22:11:56.189Z,27.20
2019-01-29T22:14:12.328Z,24.60
2019-01-29T22:16:19.429Z,27.97
2019-01-29T22:18:25.868Z,49.90
2019-01-29T22:20:33.431Z,68.13
2019-01-29T22:22:42.108Z,38.70
2019-01-29T22:24:48.368Z,26.03
2019-01-29T22:26:55.689Z,29.47
2019-01-29T22:29:02.048Z,29.17
2019-01-29T22:31:08.308Z,25.70
2019-01-29T22:33:16.109Z,18.13
2019-01-29T22:35:22.389Z,23.63
2019-01-29T22:37:28.768Z,23.27
2019-01-29T22:39:35.708Z,22.37
2019-01-29T22:41:42.068Z,26.57
2019-01-29T22:43:50.268Z,24.33
2019-01-29T22:45:56.648Z,25.77
2019-01-29T22:48:04.662Z,23.37
2019-01-29T22:50:16.088Z,25.67
2019-01-29T22:52:22.668Z,24.47
2019-01-29T22:54:28.908Z,25.30
2019-01-29T22:56:35.730Z,23.33
2019-01-29T22:58:43.728Z,30.33
2019-01-29T23:01:09.528Z,27.60
2019-01-29T23:03:17.728Z,24.70
2019-01-29T23:05:25.213Z,25.40
2019-01-29T23:07:32.848Z,22.63
2019-01-29T23:09:40.148Z,26.37
2019-01-29T23:11:47.311Z,24.50
2019-01-29T23:13:53.808Z,27.83
2019-01-29T23:16:00.310Z,27.17
2019-01-29T23:18:07.688Z,21.37
2019-01-29T23:20:17.149Z,31.43
2019-01-29T23:22:23.930Z,24.63
2019-01-29T23:24:31.988Z,25.73
2019-01-29T23:26:38.308Z,24.63
2019-01-29T23:28:44.588Z,22.73
2019-01-29T23:30:50.968Z,24.10
2019-01-29T23:32:57.289Z,22.73
2019-01-29T23:35:05.749Z,24.37
2019-01-29T23:37:12.228Z,22.03
2019-01-29T23:39:20.090Z,25.33
2019-01-29T23:41:29.361Z,21.77
2019-01-29T23:43:35.789Z,24.10
2019-01-29T23:45:42.151Z,22.73
2019-01-29T23:47:49.910Z,22.10
2019-01-29T23:49:57.089Z,23.13
2019-01-29T23:52:04.249Z,21.77
2019-01-29T23:54:10.672Z,23.80
2019-01-29T23:56:17.329Z,24.13
2019-01-29T23:58:24.668Z,18.87
